createdAt,value
2022-10-05T00:00:07.390Z,6.93
2022-10-05T00:02:34.857Z,9.73
2022-10-05T00:05:02.277Z,8.27
2022-10-05T00:07:30.628Z,13.43
2022-10-05T00:10:00.751Z,10.93
2022-10-05T00:12:30.065Z,11.40
2022-10-05T00:15:00.428Z,9.60
2022-10-05T00:17:29.727Z,9.13
2022-10-05T00:19:57.171Z,11.98
2022-10-05T00:22:33.936Z,13.20
2022-10-05T00:25:04.084Z,10.10
2022-10-05T00:27:37.583Z,9.10
2022-10-05T00:30:18.356Z,10.48
2022-10-05T00:32:46.222Z,8.70
2022-10-05T00:35:14.713Z,12.38
2022-10-05T00:37:42.754Z,8.40
2022-10-05T00:40:26.933Z,7.68
2022-10-05T00:43:13.188Z,7.85
2022-10-05T00:45:52.386Z,7.10
2022-10-05T00:48:38.826Z,8.60
2022-10-05T00:51:12.511Z,8.85
2022-10-05T00:53:40.034Z,10.43
2022-10-05T00:56:07.559Z,11.55
2022-10-05T00:58:51.575Z,8.43
2022-10-05T01:01:26.609Z,11.02
2022-10-05T01:03:57.085Z,8.57
2022-10-05T01:06:43.448Z,10.55
2022-10-05T01:09:31.461Z,7.93
2022-10-05T01:12:02.008Z,10.38
2022-10-05T01:14:40.600Z,8.25
2022-10-05T01:17:17.082Z,7.45
2022-10-05T01:20:03.076Z,8.38
2022-10-05T01:22:40.895Z,9.40
2022-10-05T01:25:11.313Z,9.60
2022-10-05T01:27:38.762Z,8.73
2022-10-05T01:30:14.448Z,9.48
2022-10-05T01:32:41.958Z,12.10
2022-10-05T01:35:15.373Z,8.45
2022-10-05T01:38:03.050Z,9.70
2022-10-05T01:40:39.666Z,10.10
2022-10-05T01:43:26.031Z,12.32
2022-10-05T01:45:53.461Z,8.82
2022-10-05T01:48:24.867Z,11.07
2022-10-05T01:50:58.759Z,11.18
2022-10-05T01:53:44.887Z,10.30
2022-10-05T01:56:19.483Z,9.45
2022-10-05T01:58:59.294Z,8.32
2022-10-05T02:01:29.919Z,9.90
2022-10-05T02:04:09.683Z,9.85
2022-10-05T02:06:42.581Z,8.73
2022-10-05T02:09:14.558Z,10.52
2022-10-05T02:11:44.639Z,9.55
2022-10-05T02:14:13.302Z,10.07
2022-10-05T02:16:43.455Z,10.73
2022-10-05T02:19:14.719Z,9.95
2022-10-05T02:21:45.611Z,9.35
2022-10-05T02:24:21.653Z,11.18
2022-10-05T02:26:51.031Z,12.50
2022-10-05T02:29:20.939Z,10.55
2022-10-05T02:31:51.419Z,10.40
2022-10-05T02:34:22.715Z,11.23
2022-10-05T02:37:12.263Z,13.43
2022-10-05T02:39:39.917Z,9.57
2022-10-05T02:42:24.642Z,10.52
2022-10-05T02:45:01.572Z,10.70
2022-10-05T02:47:33.984Z,9.25
2022-10-05T02:50:07.983Z,9.85
2022-10-05T02:52:54.434Z,9.80
2022-10-05T02:55:22.193Z,11.20
2022-10-05T02:57:52.741Z,10.07
2022-10-05T03:00:23.711Z,12.15
2022-10-05T03:02:51.846Z,8.18
2022-10-05T03:05:21.572Z,12.95
2022-10-05T03:07:54.563Z,11.30
2022-10-05T03:10:28.219Z,12.55
2022-10-05T03:12:58.974Z,10.77
2022-10-05T03:15:42.816Z,10.07
2022-10-05T03:18:13.629Z,11.48
2022-10-05T03:20:58.537Z,17.80
2022-10-05T03:23:26.029Z,29.55
2022-10-05T03:25:53.675Z,36.28
2022-10-05T03:28:30.670Z,25.25
2022-10-05T03:31:01.919Z,22.30
2022-10-05T03:33:39.082Z,11.30
2022-10-05T03:36:13.433Z,33.53
2022-10-05T03:38:44.694Z,42.72
2022-10-05T03:41:23.450Z,20.67
2022-10-05T03:44:08.034Z,31.88
2022-10-05T03:46:48.108Z,12.10
2022-10-05T03:49:45.171Z,34.10
2022-10-05T03:52:15.603Z,21.35
2022-10-05T03:54:45.808Z,12.63
2022-10-05T03:57:22.489Z,14.48
2022-10-05T04:00:05.715Z,25.25
2022-10-05T04:02:46.612Z,17.15
2022-10-05T04:05:22.063Z,11.73
2022-10-05T04:10:20.291Z,24.40
2022-10-05T04:13:02.223Z,29.42
2022-10-05T04:15:38.250Z,11.70
2022-10-05T04:18:08.111Z,12.07
2022-10-05T04:20:53.555Z,20.17
2022-10-05T04:23:30.423Z,14.23
2022-10-05T04:26:03.366Z,11.07
2022-10-05T04:28:40.220Z,9.98
2022-10-05T04:31:12.116Z,12.43
2022-10-05T04:33:39.631Z,13.68
2022-10-05T04:36:16.263Z,13.27
2022-10-05T04:38:59.261Z,12.55
2022-10-05T04:41:26.929Z,18.50
2022-10-05T04:44:13.556Z,19.90
2022-10-05T04:47:01.762Z,15.82
2022-10-05T04:49:33.287Z,14.23
2022-10-05T04:52:00.860Z,16.02
2022-10-05T04:54:31.467Z,11.25
2022-10-05T04:56:59.035Z,14.85
2022-10-05T04:59:37.587Z,20.90
2022-10-05T05:02:08.786Z,17.52
2022-10-05T05:04:40.201Z,17.23
2022-10-05T05:07:11.853Z,18.58
2022-10-05T05:09:42.528Z,23.20
2022-10-05T05:12:19.905Z,28.55
2022-10-05T05:14:51.925Z,29.45
2022-10-05T05:17:38.100Z,43.88
2022-10-05T05:20:06.332Z,57.97
2022-10-05T05:22:43.123Z,42.72
2022-10-05T05:25:23.144Z,28.98
2022-10-05T05:27:56.425Z,26.45
2022-10-05T05:30:52.736Z,22.42
2022-10-05T05:33:23.341Z,28.55
2022-10-05T05:36:07.591Z,15.00
2022-10-05T05:38:59.119Z,17.30
2022-10-05T05:41:35.562Z,17.42
2022-10-05T05:44:06.953Z,23.85
2022-10-05T05:47:01.763Z,13.52
2022-10-05T05:49:44.717Z,24.05
2022-10-05T05:52:25.351Z,13.88
2022-10-05T05:54:59.175Z,27.50
2022-10-05T05:57:37.169Z,22.17
2022-10-05T06:00:06.971Z,23.33
2022-10-05T06:03:00.119Z,21.55
2022-10-05T06:05:31.738Z,19.17
2022-10-05T06:08:20.580Z,15.95
2022-10-05T06:10:59.262Z,16.73
2022-10-05T06:13:33.635Z,14.27
2022-10-05T06:16:19.909Z,16.83
2022-10-05T06:18:50.747Z,12.52
2022-10-05T06:21:27.751Z,10.45
2022-10-05T06:24:10.688Z,8.73
2022-10-05T06:26:59.250Z,8.82
2022-10-05T06:29:29.650Z,9.48
2022-10-05T06:32:06.990Z,16.63
2022-10-05T06:34:54.465Z,11.30
2022-10-05T06:37:43.084Z,9.23
2022-10-05T06:40:29.176Z,10.43
2022-10-05T06:43:15.304Z,11.88
2022-10-05T06:46:03.014Z,19.05
2022-10-05T06:48:58.087Z,10.07
2022-10-05T06:51:48.504Z,7.88
2022-10-05T06:54:43.424Z,9.10
2022-10-05T06:57:24.768Z,11.30
2022-10-05T06:59:55.325Z,13.10
2022-10-05T07:02:39.992Z,12.82
2022-10-05T07:05:07.531Z,10.75
2022-10-05T07:07:38.058Z,6.03
2022-10-05T07:10:05.517Z,13.98
2022-10-05T07:13:05.338Z,11.00
2022-10-05T07:15:41.366Z,12.13
2022-10-05T07:18:19.399Z,9.90
2022-10-05T07:21:01.047Z,8.68
2022-10-05T07:23:43.579Z,12.65
2022-10-05T07:26:15.505Z,14.35
2022-10-05T07:28:55.975Z,16.05
2022-10-05T07:31:23.697Z,28.25
2022-10-05T07:33:59.494Z,30.02
2022-10-05T07:36:53.650Z,12.25
2022-10-05T07:39:42.140Z,11.32
2022-10-05T07:42:31.245Z,13.00
2022-10-05T07:45:09.176Z,14.05
2022-10-05T07:47:40.192Z,11.10
2022-10-05T07:50:07.665Z,9.95
2022-10-05T07:52:40.123Z,10.90
2022-10-05T07:55:19.742Z,8.45
2022-10-05T07:58:03.297Z,9.70
2022-10-05T08:00:44.136Z,8.38
2022-10-05T08:03:15.278Z,7.53
2022-10-05T08:05:43.264Z,13.73
2022-10-05T08:08:22.568Z,7.47
2022-10-05T08:10:56.345Z,8.98
2022-10-05T08:13:40.166Z,9.00
2022-10-05T08:16:14.776Z,12.48
2022-10-05T08:19:03.963Z,8.98
2022-10-05T08:22:07.072Z,12.18
2022-10-05T08:24:40.132Z,7.95
2022-10-05T08:27:12.680Z,6.55
2022-10-05T08:29:46.006Z,6.40
2022-10-05T08:32:17.035Z,7.93
2022-10-05T08:34:54.199Z,10.18
2022-10-05T08:37:24.992Z,6.05
2022-10-05T08:40:18.070Z,8.52
2022-10-05T08:43:04.239Z,9.65
2022-10-05T08:45:40.073Z,6.85
2022-10-05T08:48:17.494Z,9.55
2022-10-05T08:50:56.976Z,6.45
2022-10-05T08:53:43.182Z,9.80
2022-10-05T08:56:27.808Z,6.97
2022-10-05T08:59:05.255Z,14.73
2022-10-05T09:01:42.534Z,7.32
2022-10-05T09:04:36.541Z,21.63
2022-10-05T09:07:16.658Z,7.22
2022-10-05T09:10:01.541Z,6.03
2022-10-05T09:12:50.416Z,4.20
2022-10-05T09:15:25.868Z,4.53
2022-10-05T09:18:12.792Z,5.43
2022-10-05T09:20:58.429Z,6.40
2022-10-05T09:23:28.925Z,3.92
2022-10-05T09:25:58.854Z,4.88
2022-10-05T09:28:35.392Z,3.78
2022-10-05T09:31:11.578Z,5.63
2022-10-05T09:33:56.421Z,6.95
2022-10-05T09:36:31.907Z,4.97
2022-10-05T09:39:18.048Z,3.75
2022-10-05T09:41:51.330Z,5.72
2022-10-05T09:44:34.514Z,3.88
2022-10-05T09:47:11.046Z,6.68
2022-10-05T09:49:57.490Z,3.90
2022-10-05T09:52:27.873Z,5.60
2022-10-05T09:55:01.423Z,5.32
2022-10-05T09:57:28.925Z,4.93
2022-10-05T10:00:15.327Z,3.25
2022-10-05T10:02:53.102Z,3.90
2022-10-05T10:05:31.400Z,7.63
2022-10-05T10:07:58.776Z,3.35
2022-10-05T10:10:45.960Z,4.25
2022-10-05T10:13:22.286Z,6.53
2022-10-05T10:16:04.811Z,6.35
2022-10-05T10:18:32.323Z,5.18
2022-10-05T10:21:18.487Z,3.65
2022-10-05T10:24:00.224Z,4.35
2022-10-05T10:26:51.573Z,4.03
2022-10-05T10:29:36.051Z,2.35
2022-10-05T10:32:11.407Z,3.53
2022-10-05T10:34:45.304Z,4.05
2022-10-05T10:37:12.798Z,3.70
2022-10-05T10:39:58.603Z,3.97
2022-10-05T10:42:29.166Z,4.78
2022-10-05T10:45:00.718Z,5.95
2022-10-05T10:47:28.238Z,3.80
2022-10-05T10:50:05.390Z,3.53
2022-10-05T10:52:41.734Z,2.70
2022-10-05T10:55:16.716Z,3.25
2022-10-05T10:58:16.895Z,3.25
2022-10-05T11:01:02.837Z,2.15
2022-10-05T11:03:30.256Z,5.07
2022-10-05T11:06:09.106Z,4.00
2022-10-05T11:08:55.069Z,3.97
2022-10-05T11:11:41.171Z,6.38
2022-10-05T11:14:27.108Z,4.22
2022-10-05T11:16:54.605Z,2.35
2022-10-05T11:19:59.602Z,2.88
2022-10-05T11:22:47.199Z,2.13
2022-10-05T11:25:28.038Z,2.20
2022-10-05T11:27:55.625Z,7.22
2022-10-05T11:30:46.219Z,3.60
2022-10-05T11:33:19.332Z,3.40
2022-10-05T11:35:52.716Z,2.28
2022-10-05T11:38:39.011Z,3.28
2022-10-05T11:41:25.206Z,2.17
2022-10-05T11:44:06.138Z,5.53
2022-10-05T11:46:41.516Z,1.85
2022-10-05T11:49:18.197Z,2.58
2022-10-05T11:52:06.979Z,4.10
2022-10-05T11:55:05.785Z,12.52
2022-10-05T11:57:38.896Z,4.45
2022-10-05T12:00:12.905Z,2.65
2022-10-05T12:02:53.320Z,6.23
2022-10-05T12:05:28.163Z,5.03
2022-10-05T12:08:18.657Z,3.22
2022-10-05T12:11:09.405Z,2.63
2022-10-05T12:13:52.283Z,4.57
2022-10-05T12:16:19.732Z,5.30
2022-10-05T12:18:47.342Z,4.80
2022-10-05T12:21:36.846Z,3.92
2022-10-05T12:24:26.784Z,5.85
2022-10-05T12:27:03.643Z,5.70
2022-10-05T12:29:35.186Z,4.45
2022-10-05T12:32:05.736Z,4.80
2022-10-05T12:34:42.330Z,7.38
2022-10-05T12:37:28.640Z,7.65
2022-10-05T12:40:03.773Z,7.03
2022-10-05T12:42:40.874Z,3.42
2022-10-05T12:45:14.938Z,4.63
2022-10-05T12:47:42.530Z,3.05
2022-10-05T12:50:28.640Z,5.25
2022-10-05T12:52:56.135Z,2.75
2022-10-05T12:55:26.117Z,3.22
2022-10-05T12:58:02.265Z,7.95
2022-10-05T13:00:32.375Z,3.65
2022-10-05T13:03:02.647Z,6.22
2022-10-05T13:05:30.087Z,6.30
2022-10-05T13:08:18.926Z,3.13
2022-10-05T13:10:51.292Z,6.90
2022-10-05T13:13:18.754Z,2.58
2022-10-05T13:15:56.604Z,5.03
2022-10-05T13:18:30.348Z,1.75
2022-10-05T13:21:09.777Z,2.90
2022-10-05T13:23:57.699Z,4.05
2022-10-05T13:26:29.933Z,2.20
2022-10-05T13:28:57.376Z,2.72
2022-10-05T13:31:27.566Z,5.18
2022-10-05T13:33:58.271Z,2.88
2022-10-05T13:36:44.296Z,6.38
2022-10-05T13:39:30.398Z,5.15
2022-10-05T13:42:03.602Z,7.57
2022-10-05T13:44:39.693Z,3.90
2022-10-05T13:47:12.480Z,6.40
2022-10-05T13:49:48.142Z,4.30
2022-10-05T13:52:19.425Z,7.57
2022-10-05T13:54:51.876Z,3.83
2022-10-05T13:57:25.460Z,2.28
2022-10-05T13:59:54.860Z,3.97
2022-10-05T14:02:29.680Z,3.35
2022-10-05T14:05:01.354Z,6.13
2022-10-05T14:07:31.548Z,6.70
2022-10-05T14:09:59.697Z,2.63
2022-10-05T14:12:28.321Z,2.53
2022-10-05T14:14:57.157Z,8.25
2022-10-05T14:17:30.608Z,4.07
2022-10-05T14:20:01.327Z,5.40
2022-10-05T14:22:29.455Z,3.05
2022-10-05T14:25:03.853Z,7.13
2022-10-05T14:27:36.463Z,5.47
2022-10-05T14:30:24.368Z,11.50
2022-10-05T14:32:56.306Z,5.18
2022-10-05T14:35:25.884Z,8.20
2022-10-05T14:37:53.283Z,4.32
2022-10-05T14:40:29.645Z,4.60
2022-10-05T14:42:57.522Z,7.35
2022-10-05T14:45:26.549Z,3.30
2022-10-05T14:47:54.036Z,4.57
2022-10-05T14:50:26.277Z,15.05
2022-10-05T14:53:11.970Z,9.63
2022-10-05T14:55:46.723Z,5.90
2022-10-05T14:58:26.174Z,6.53
2022-10-05T15:01:14.775Z,4.88
2022-10-05T15:03:47.778Z,6.88
2022-10-05T15:06:19.167Z,10.88
2022-10-05T15:08:48.143Z,6.40
2022-10-05T15:11:18.572Z,8.98
2022-10-05T15:13:48.652Z,5.25
2022-10-05T15:16:20.950Z,7.63
2022-10-05T15:19:00.828Z,5.13
2022-10-05T15:21:37.382Z,21.17
2022-10-05T15:24:09.340Z,10.60
2022-10-05T15:26:50.640Z,11.35
2022-10-05T15:29:26.132Z,7.63
2022-10-05T15:31:53.679Z,5.95
2022-10-05T15:34:42.756Z,17.17
2022-10-05T15:37:19.471Z,21.63
2022-10-05T15:39:50.204Z,28.10
2022-10-05T15:42:18.936Z,78.97
2022-10-05T15:44:52.456Z,63.05
2022-10-05T15:47:23.891Z,11.05
2022-10-05T15:50:14.605Z,18.45
2022-10-05T15:52:46.085Z,44.97
2022-10-05T15:55:19.656Z,71.78
2022-10-05T15:57:56.331Z,81.78
2022-10-05T16:00:25.805Z,33.75
2022-10-05T16:03:02.157Z,33.60
2022-10-05T16:05:54.250Z,22.13
2022-10-05T16:08:53.948Z,63.13
2022-10-05T16:11:21.333Z,15.15
2022-10-05T16:14:01.147Z,23.92
2022-10-05T16:16:42.765Z,41.22
2022-10-05T16:19:14.779Z,27.33
2022-10-05T16:21:44.223Z,25.23
2022-10-05T16:24:15.803Z,32.50
2022-10-05T16:26:46.172Z,30.65
2022-10-05T16:29:24.012Z,26.50
2022-10-05T16:31:58.091Z,37.28
2022-10-05T16:34:54.247Z,19.05
2022-10-05T16:37:41.219Z,68.45
2022-10-05T16:40:09.120Z,61.53
2022-10-05T16:42:39.564Z,33.30
2022-10-05T16:45:14.956Z,46.47
2022-10-05T16:48:01.574Z,30.67
2022-10-05T16:50:47.620Z,77.25
2022-10-05T16:53:18.175Z,90.15
2022-10-05T16:55:48.457Z,107.95
2022-10-05T16:58:28.042Z,92.40
2022-10-05T17:01:04.730Z,98.13
2022-10-05T17:03:51.839Z,74.05
2022-10-05T17:06:19.296Z,100.95
2022-10-05T17:08:46.732Z,73.80
2022-10-05T17:11:17.389Z,101.28
2022-10-05T17:13:56.248Z,104.18
2022-10-05T17:16:47.013Z,98.07
2022-10-05T17:19:17.994Z,82.43
2022-10-05T17:21:51.886Z,66.15
2022-10-05T17:24:19.328Z,75.38
2022-10-05T17:26:46.763Z,87.88
2022-10-05T17:29:26.912Z,96.47
2022-10-05T17:32:33.532Z,76.55
2022-10-05T17:35:01.129Z,55.35
2022-10-05T17:37:29.551Z,62.20
2022-10-05T17:39:59.706Z,72.30
2022-10-05T17:42:30.033Z,86.70
2022-10-05T17:45:02.626Z,87.03
2022-10-05T17:48:03.325Z,113.63
2022-10-05T17:51:02.614Z,112.63
2022-10-05T17:54:03.839Z,48.83
2022-10-05T17:56:55.581Z,52.83
2022-10-05T17:59:39.879Z,106.40
2022-10-05T18:02:22.089Z,98.20
2022-10-05T18:05:12.766Z,89.03
2022-10-05T18:07:48.701Z,78.32
2022-10-05T18:10:28.852Z,79.97
2022-10-05T18:12:59.605Z,89.03
2022-10-05T18:15:27.051Z,100.45
2022-10-05T18:18:32.130Z,69.68
2022-10-05T18:21:14.831Z,58.63
2022-10-05T18:23:47.432Z,76.22
2022-10-05T18:26:40.238Z,75.63
2022-10-05T18:29:13.970Z,72.65
2022-10-05T18:31:45.351Z,80.75
2022-10-05T18:34:13.275Z,71.25
2022-10-05T18:36:46.942Z,67.95
2022-10-05T18:39:33.234Z,77.35
2022-10-05T18:42:00.628Z,67.45
2022-10-05T18:44:39.865Z,67.85
2022-10-05T18:47:13.381Z,60.10
2022-10-05T18:49:40.755Z,86.07
2022-10-05T18:52:12.324Z,54.63
2022-10-05T18:54:54.182Z,58.25
2022-10-05T18:57:36.768Z,66.50
2022-10-05T19:00:16.463Z,64.22
2022-10-05T19:03:06.330Z,58.58
2022-10-05T19:05:47.577Z,66.22
2022-10-05T19:08:29.699Z,57.15
2022-10-05T19:11:18.024Z,63.22
2022-10-05T19:13:46.769Z,58.05
2022-10-05T19:16:17.036Z,60.60
2022-10-05T19:18:47.700Z,35.05
2022-10-05T19:21:33.124Z,39.85
2022-10-05T19:24:18.987Z,41.97
2022-10-05T19:26:58.759Z,70.70
2022-10-05T19:29:30.359Z,61.88
2022-10-05T19:32:03.069Z,49.15
2022-10-05T19:34:39.534Z,68.28
2022-10-05T19:37:12.035Z,55.97
2022-10-05T19:39:54.140Z,71.57
2022-10-05T19:42:46.174Z,70.35
2022-10-05T19:45:27.359Z,58.22
2022-10-05T19:48:07.578Z,38.70
2022-10-05T19:50:38.493Z,56.95
2022-10-05T19:53:10.327Z,54.22
2022-10-05T19:55:37.833Z,40.45
2022-10-05T19:58:17.376Z,45.88
2022-10-05T20:00:45.856Z,44.03
2022-10-05T20:03:17.476Z,38.92
2022-10-05T20:05:45.156Z,42.15
2022-10-05T20:08:17.491Z,51.92
2022-10-05T20:10:45.689Z,47.58
2022-10-05T20:13:22.996Z,42.00
2022-10-05T20:16:45.231Z,37.22
2022-10-05T20:19:43.588Z,34.45
2022-10-05T20:22:27.138Z,35.63
2022-10-05T20:24:56.172Z,36.85
2022-10-05T20:27:37.299Z,35.17
2022-10-05T20:30:05.587Z,32.20
2022-10-05T20:32:32.967Z,30.40
2022-10-05T20:35:00.500Z,28.10
2022-10-05T20:37:28.080Z,34.75
2022-10-05T20:39:55.611Z,25.65
2022-10-05T20:42:23.894Z,31.80
2022-10-05T20:44:56.463Z,45.20
2022-10-05T20:47:24.847Z,28.00
2022-10-05T20:49:54.523Z,37.30
2022-10-05T20:52:23.206Z,38.53
2022-10-05T20:54:53.927Z,44.30
2022-10-05T20:57:21.556Z,50.38
2022-10-05T20:59:48.912Z,80.50
2022-10-05T21:02:16.476Z,55.40
2022-10-05T21:04:47.542Z,40.45
2022-10-05T21:07:16.708Z,46.47
2022-10-05T21:09:46.541Z,35.78
2022-10-05T21:12:14.444Z,35.72
2022-10-05T21:14:41.844Z,48.50
2022-10-05T21:17:09.640Z,33.88
2022-10-05T21:19:40.549Z,34.63
2022-10-05T21:22:09.190Z,48.47
2022-10-05T21:24:37.539Z,49.97
2022-10-05T21:27:05.305Z,33.13
2022-10-05T21:29:34.228Z,33.60
2022-10-05T21:32:01.745Z,31.83
2022-10-05T21:34:29.274Z,26.80
2022-10-05T21:36:56.718Z,41.92
2022-10-05T21:39:24.783Z,44.13
2022-10-05T21:41:52.282Z,37.13
2022-10-05T21:44:19.798Z,32.40
2022-10-05T21:46:47.779Z,37.30
2022-10-05T21:49:17.549Z,25.33
2022-10-05T21:51:47.281Z,29.02
2022-10-05T21:54:16.125Z,51.22
2022-10-05T21:56:49.497Z,49.75
2022-10-05T21:59:18.792Z,37.60
2022-10-05T22:01:46.188Z,59.40
2022-10-05T22:04:15.091Z,81.72
2022-10-05T22:06:42.483Z,78.20
2022-10-05T22:09:10.040Z,74.38
2022-10-05T22:11:37.556Z,57.05
2022-10-05T22:14:04.983Z,48.65
2022-10-05T22:16:33.987Z,73.45
2022-10-05T22:19:11.362Z,33.70
2022-10-05T22:21:41.729Z,30.00
2022-10-05T22:24:11.692Z,28.58
2022-10-05T22:26:40.114Z,29.08
2022-10-05T22:29:07.662Z,30.23
2022-10-05T22:31:35.465Z,33.05
2022-10-05T22:34:03.027Z,31.58
2022-10-05T22:36:30.455Z,22.38
2022-10-05T22:38:58.450Z,31.67
2022-10-05T22:41:25.879Z,48.47
2022-10-05T22:43:53.297Z,23.85
2022-10-05T22:46:20.778Z,27.08
2022-10-05T22:48:48.238Z,25.42
2022-10-05T22:51:16.250Z,20.35
2022-10-05T22:53:43.672Z,25.35
2022-10-05T22:56:12.656Z,32.08
2022-10-05T22:58:40.961Z,38.97
2022-10-05T23:01:15.564Z,21.10
2022-10-05T23:03:43.557Z,21.00
2022-10-05T23:06:15.217Z,86.97
2022-10-05T23:08:43.217Z,24.40
2022-10-05T23:11:12.416Z,33.17
2022-10-05T23:13:40.555Z,28.33
2022-10-05T23:16:09.459Z,29.10
2022-10-05T23:18:37.249Z,24.05
2022-10-05T23:21:07.458Z,31.58
2022-10-05T23:23:38.447Z,24.10
2022-10-05T23:26:06.643Z,31.67
2022-10-05T23:28:34.664Z,26.98
2022-10-05T23:31:06.923Z,27.70
2022-10-05T23:33:34.694Z,23.17
2022-10-05T23:36:08.980Z,30.60
2022-10-05T23:38:36.667Z,30.97
2022-10-05T23:41:04.635Z,19.98
2022-10-05T23:43:33.361Z,26.48
2022-10-05T23:46:01.213Z,21.50
2022-10-05T23:48:30.629Z,25.65
2022-10-05T23:50:58.438Z,32.42
2022-10-05T23:53:26.296Z,38.03
2022-10-05T23:55:54.467Z,28.60
2022-10-05T23:58:22.718Z,19.58
